Current | Forecast
Updated: 6:20 PM CEST on October 19, 2017
Observed at Hemavan Airport, Sweden
Temperature 36°F
Windchill 31°F
Humidity 75%
Dew Point 28°F
Wind NW at 6 mph
Pressure 30.09 in (Steady)
Conditions Clear
Visibility 6.2 miles
UV N/A
Clouds
Yesterday's Maximum 41°F
Yesterday's Minimum 32°F approx.
Yesterday's Heating Degree Days 29 approx.
Sunrise8:04 AM CEST
Sunset5:13 PM CEST
Moon Rise6:52 AM CEST
Moon Set5:50 PM CEST
Moon PhaseMoon Phase
Waning Crescent
Raw METARMETAR ESUT 191620Z AUTO 32005KT 9999 NCD 02/M02 Q1019


Monday
. High: 30° F.
Tuesday
. High: 30° F.
Wednesday
. High: 34° F.
Thursday
. High: 35° F.
Friday
. High: 35° F.
Saturday
. High: 35° F.
Sunday
. High: 30° F.
Monday
. High: 30° F.

Units: English | Metric

Find the Weather for any City, State or Zipcode, or Country:

U.S. State List | Severe Weather | Tropical Storms | Ski Conditions
United States | Canada | Central America | South America | Asia | Europe | Australia | Africa | Islands

Weather Underground

© Copyright 2017
The Weather Company, LLC